Time;durP1;ratioP1;P1;durP2;ratioP2;P2;SDS_P1;SDS_P2;PMS_P1;PMS_P2;Temp;Humidity;BMP_temperature;BMP_pressure;BME280_temperature;BME280_humidity;BME280_pressure;Samples;Min_cycle;Max_cycle;Signal;HPM_P1;HPM_P2
2022/04/28 00:01:58;;;;;;;8.77;4.70;;;17.30;64.50;;;;;;5012191;28;20104;-74
2022/04/28 00:04:24;;;;;;;8.55;4.57;;;17.30;64.40;;;;;;5013736;28;20509;-74
2022/04/28 00:06:49;;;;;;;10.70;5.45;;;17.30;64.50;;;;;;5012639;28;20531;-75
2022/04/28 00:09:15;;;;;;;13.75;4.63;;;17.20;64.10;;;;;;5012566;28;20033;-74
2022/04/28 00:11:41;;;;;;;10.68;4.30;;;17.20;64.20;;;;;;5013905;28;20514;-74
2022/04/28 00:14:10;;;;;;;10.48;4.53;;;17.20;64.40;;;;;;5013972;28;20026;-73
2022/04/28 00:16:36;;;;;;;8.48;4.35;;;17.20;64.00;;;;;;5028082;28;20124;-73
2022/04/28 00:19:03;;;;;;;7.65;4.30;;;17.10;64.00;;;;;;5016590;28;20121;-75
2022/04/28 00:21:28;;;;;;;11.77;4.22;;;17.10;63.70;;;;;;5035396;28;20041;-74
2022/04/28 00:23:54;;;;;;;9.55;4.07;;;17.10;63.90;;;;;;5034017;28;20040;-74
2022/04/28 00:26:20;;;;;;;10.50;4.65;;;17.10;64.10;;;;;;5033371;28;20060;-73
2022/04/28 00:28:47;;;;;;;11.45;4.75;;;17.10;64.40;;;;;;5033337;28;20060;-74
2022/04/28 00:31:13;;;;;;;11.07;4.45;;;17.10;64.30;;;;;;5033471;28;20056;-74
2022/04/28 00:33:41;;;;;;;12.63;4.43;;;17.10;64.10;;;;;;5033207;28;20053;-75
2022/04/28 00:36:08;;;;;;;10.52;3.88;;;17.00;64.30;;;;;;5033326;28;20030;-74
2022/04/28 00:38:34;;;;;;;7.65;4.03;;;17.00;64.30;;;;;;5031883;28;20045;-74
2022/04/28 00:41:00;;;;;;;12.48;4.18;;;17.00;64.50;;;;;;5033304;28;20029;-74
2022/04/28 00:43:29;;;;;;;8.75;3.95;;;16.90;64.60;;;;;;5033238;28;20021;-74
2022/04/28 00:45:56;;;;;;;9.85;3.90;;;16.90;64.70;;;;;;5033043;28;20025;-74
2022/04/28 00:51:07;;;;;;;8.10;4.45;;;16.90;65.00;;;;;;5033362;28;20037;-74
2022/04/28 00:53:46;;;;;;;9.85;4.00;;;16.90;65.20;;;;;;5033139;28;20021;-73
2022/04/28 00:56:13;;;;;;;7.15;4.00;;;16.80;65.80;;;;;;5033207;28;20026;-74
2022/04/28 00:58:39;;;;;;;7.95;3.97;;;16.80;65.70;;;;;;5033035;28;20041;-74
2022/04/28 01:01:05;;;;;;;8.75;3.95;;;16.80;66.20;;;;;;5032957;28;20056;-74
2022/04/28 01:03:31;;;;;;;10.57;4.10;;;16.80;65.90;;;;;;5031617;28;20036;-73
2022/04/28 01:05:59;;;;;;;11.65;4.25;;;16.70;66.50;;;;;;5032907;28;20493;-74
2022/04/28 01:08:25;;;;;;;6.35;3.80;;;16.70;66.70;;;;;;5032961;28;20378;-74
2022/04/28 01:10:54;;;;;;;7.22;3.88;;;16.70;66.50;;;;;;5032891;28;20061;-73
2022/04/28 01:13:20;;;;;;;8.02;3.88;;;16.60;66.90;;;;;;5032881;28;20022;-73
2022/04/28 01:15:47;;;;;;;9.48;4.00;;;16.60;66.80;;;;;;5035391;28;20055;-73
2022/04/28 01:18:14;;;;;;;9.55;3.85;;;16.60;67.10;;;;;;5036822;28;20064;-73
2022/04/28 01:20:40;;;;;;;7.00;3.72;;;16.60;67.20;;;;;;5035429;28;20022;-73
2022/04/28 01:23:07;;;;;;;7.18;3.95;;;16.60;67.10;;;;;;5036511;28;20112;-73
2022/04/28 01:25:33;;;;;;;8.15;3.58;;;16.60;67.40;;;;;;5036695;28;20087;-73
2022/04/28 01:27:59;;;;;;;7.68;3.70;;;16.60;67.10;;;;;;5036847;28;20029;-74
2022/04/28 01:30:25;;;;;;;8.80;3.95;;;16.50;67.40;;;;;;5036635;28;20022;-73
2022/04/28 01:32:53;;;;;;;7.15;3.80;;;16.50;67.70;;;;;;5036687;28;20096;-73
2022/04/28 01:35:19;;;;;;;6.88;3.78;;;16.40;67.40;;;;;;5036342;28;20102;-73
2022/04/28 01:37:45;;;;;;;8.90;4.10;;;16.40;68.00;;;;;;5036512;28;20029;-74
2022/04/28 01:40:14;;;;;;;6.55;3.22;;;16.40;68.20;;;;;;5036369;28;20075;-73
2022/04/28 01:42:41;;;;;;;5.72;3.38;;;16.30;68.50;;;;;;5036705;28;20029;-73
2022/04/28 01:45:08;;;;;;;6.95;3.60;;;16.20;68.30;;;;;;5036359;28;20017;-73
2022/04/28 01:47:35;;;;;;;7.55;3.60;;;16.20;68.90;;;;;;5036483;28;20475;-74
2022/04/28 01:50:02;;;;;;;8.32;3.75;;;16.20;69.00;;;;;;5036191;28;20382;-73
2022/04/28 01:55:11;;;;;;;6.88;3.92;;;16.20;69.60;;;;;;5036578;28;20036;-73
2022/04/28 01:57:39;;;;;;;8.07;3.60;;;16.20;69.00;;;;;;5036222;28;20041;-73
2022/04/28 02:00:06;;;;;;;5.90;3.30;;;16.10;69.40;;;;;;5036099;28;20029;-73
2022/04/28 02:02:33;;;;;;;7.25;4.35;;;16.10;69.60;;;;;;5034967;28;20403;-72
2022/04/28 02:04:59;;;;;;;6.03;3.00;;;16.10;69.20;;;;;;5035920;28;20018;-74
2022/04/28 02:07:28;;;;;;;7.57;4.00;;;16.10;69.40;;;;;;5036185;28;20029;-74
2022/04/28 02:09:55;;;;;;;7.38;3.40;;;16.10;69.40;;;;;;5035894;28;20022;-75
2022/04/28 02:12:21;;;;;;;7.13;3.40;;;16.20;69.10;;;;;;5035916;28;20024;-73
2022/04/28 02:14:48;;;;;;;6.38;3.30;;;16.20;68.80;;;;;;5035463;28;20112;-73
2022/04/28 02:17:25;;;;;;;7.18;3.65;;;16.20;69.20;;;;;;5035428;28;20392;-72
2022/04/28 02:19:51;;;;;;;7.20;3.80;;;16.20;69.40;;;;;;5019333;28;20448;-73
2022/04/28 02:22:17;;;;;;;7.05;3.50;;;16.20;68.50;;;;;;5036252;28;20370;-73
2022/04/28 02:24:43;;;;;;;5.40;3.45;;;16.20;68.50;;;;;;5035712;28;20029;-72
2022/04/28 02:27:09;;;;;;;6.38;3.10;;;16.20;69.30;;;;;;5034932;28;20104;-74
2022/04/28 02:29:35;;;;;;;8.98;3.03;;;16.20;68.50;;;;;;5035521;28;20435;-73
2022/04/28 02:32:01;;;;;;;9.20;3.40;;;16.20;68.40;;;;;;5035531;28;20026;-72
2022/04/28 02:34:27;;;;;;;5.50;2.97;;;16.20;68.20;;;;;;5017483;28;20030;-72
2022/04/28 02:36:53;;;;;;;7.90;3.58;;;16.20;68.20;;;;;;5035326;28;20056;-73
2022/04/28 02:39:19;;;;;;;7.13;3.33;;;16.20;68.30;;;;;;5035297;28;20076;-74
2022/04/28 02:41:46;;;;;;;5.53;2.85;;;16.20;68.00;;;;;;5035388;28;20017;-74
2022/04/28 02:44:12;;;;;;;5.97;3.20;;;16.20;67.60;;;;;;5035570;28;20424;-73
2022/04/28 02:46:45;;;;;;;5.70;2.97;;;16.20;67.60;;;;;;5035115;28;20040;-73
2022/04/28 02:49:15;;;;;;;5.95;3.13;;;16.20;67.30;;;;;;5017248;28;20029;-74
2022/04/28 02:51:41;;;;;;;6.18;3.17;;;16.10;67.80;;;;;;5035252;28;20578;-73
2022/04/28 02:54:08;;;;;;;7.07;3.10;;;16.10;67.10;;;;;;5035030;28;20021;-73
2022/04/28 02:56:34;;;;;;;8.90;3.10;;;16.00;67.20;;;;;;5035147;28;20116;-72
2022/04/28 02:59:00;;;;;;;5.78;3.25;;;16.00;67.10;;;;;;5033552;28;20048;-73
2022/04/28 03:01:27;;;;;;;7.20;3.30;;;16.00;67.00;;;;;;5017174;28;20024;-73
2022/04/28 03:03:53;;;;;;;6.63;3.22;;;16.00;66.90;;;;;;5034933;28;20037;-72
2022/04/28 03:11:50;;;;;;;9.48;4.10;;;16.00;66.80;;;;;;5034912;28;20086;-73
2022/04/28 03:14:16;;;;;;;7.30;3.45;;;16.00;66.40;;;;;;5034834;28;20026;-73
2022/04/28 03:16:42;;;;;;;5.95;3.95;;;16.00;66.30;;;;;;5034449;28;20054;-73
2022/04/28 03:19:08;;;;;;;7.55;4.15;;;16.00;66.30;;;;;;5034350;28;20033;-74
2022/04/28 03:21:35;;;;;;;6.53;3.63;;;16.00;66.40;;;;;;5034693;28;20014;-74
2022/04/28 03:24:00;;;;;;;7.35;4.20;;;16.00;66.30;;;;;;5034684;28;20132;-73
2022/04/28 03:26:28;;;;;;;9.15;5.00;;;16.00;66.10;;;;;;5037554;28;20475;-73
2022/04/28 03:28:55;;;;;;;7.95;4.90;;;15.90;66.10;;;;;;5039282;28;20458;-73
2022/04/28 03:31:21;;;;;;;11.02;5.20;;;15.90;66.20;;;;;;5035661;28;20022;-72
2022/04/28 03:33:47;;;;;;;9.80;4.50;;;15.90;66.20;;;;;;5033069;28;20107;-74
2022/04/28 03:38:57;;;;;;;9.80;4.10;;;15.90;66.10;;;;;;5033954;28;20152;-73
2022/04/28 03:41:24;;;;;;;6.65;4.18;;;15.90;66.00;;;;;;5034416;28;20053;-73
2022/04/28 03:43:50;;;;;;;8.15;3.60;;;15.80;65.80;;;;;;5034124;28;20018;-74
2022/04/28 03:46:17;;;;;;;20.10;4.20;;;15.80;66.00;;;;;;5034000;28;20052;-73
2022/04/28 03:48:44;;;;;;;9.73;3.58;;;15.80;66.20;;;;;;5033986;28;20056;-73
2022/04/28 03:51:10;;;;;;;6.05;3.30;;;15.80;65.90;;;;;;5034270;28;20021;-73
2022/04/28 03:53:36;;;;;;;8.38;4.00;;;15.70;65.10;;;;;;5034353;28;20104;-72
2022/04/28 03:56:02;;;;;;;7.18;3.67;;;15.70;65.40;;;;;;5034217;28;20109;-73
2022/04/28 03:58:28;;;;;;;6.38;2.85;;;15.80;65.30;;;;;;5033979;28;20112;-74
2022/04/28 04:00:54;;;;;;;8.68;4.10;;;15.70;64.90;;;;;;5033808;28;20090;-72
2022/04/28 04:03:20;;;;;;;7.43;3.13;;;15.70;64.70;;;;;;5033770;28;20037;-74
2022/04/28 04:05:49;;;;;;;12.52;3.05;;;15.70;64.50;;;;;;5033452;28;20021;-73
2022/04/28 04:08:15;;;;;;;8.10;3.10;;;15.60;64.20;;;;;;5016222;28;20025;-73
2022/04/28 04:10:41;;;;;;;5.45;2.75;;;15.60;64.20;;;;;;5033816;28;20139;-73
2022/04/28 04:13:07;;;;;;;7.18;2.50;;;15.60;63.70;;;;;;5033642;28;20415;-73
2022/04/28 04:15:33;;;;;;;5.20;2.75;;;15.60;63.50;;;;;;5031935;28;20147;-74
2022/04/28 04:18:01;;;;;;;9.13;3.33;;;15.60;63.70;;;;;;5033606;28;20061;-73
2022/04/28 04:20:28;;;;;;;8.10;3.53;;;15.50;63.10;;;;;;5032044;28;20029;-73
2022/04/28 04:22:54;;;;;;;6.55;2.92;;;15.50;63.20;;;;;;5033478;28;20053;-74
2022/04/28 04:25:20;;;;;;;6.30;2.42;;;15.60;63.10;;;;;;5033468;28;20335;-73
2022/04/28 04:27:47;;;;;;;5.38;2.40;;;15.60;62.70;;;;;;5033367;28;20114;-72
2022/04/28 04:32:57;;;;;;;6.40;2.30;;;15.50;62.60;;;;;;5033420;28;20447;-75
2022/04/28 04:35:23;;;;;;;5.88;2.72;;;15.50;62.70;;;;;;5033148;28;20486;-72
2022/04/28 04:37:50;;;;;;;8.80;2.90;;;15.50;62.40;;;;;;5033401;28;20029;-74
2022/04/28 04:40:16;;;;;;;5.65;2.50;;;15.50;62.30;;;;;;5033190;28;20017;-73
2022/04/28 04:42:42;;;;;;;13.38;2.65;;;15.50;62.10;;;;;;5033038;28;20446;-73
2022/04/28 04:45:09;;;;;;;5.38;2.60;;;15.50;62.10;;;;;;5033150;28;20017;-73
2022/04/28 04:47:35;;;;;;;5.82;3.00;;;15.40;61.90;;;;;;5033174;28;20100;-73
2022/04/28 04:50:02;;;;;;;5.15;2.40;;;15.50;62.30;;;;;;5032885;28;20030;-73
2022/04/28 04:52:28;;;;;;;5.70;3.13;;;15.50;62.00;;;;;;5033014;28;20053;-74
2022/04/28 04:54:53;;;;;;;6.10;2.95;;;15.40;61.30;;;;;;5032628;28;20057;-73
2022/04/28 04:57:19;;;;;;;6.50;2.90;;;15.50;61.50;;;;;;5032910;28;20112;-72
2022/04/28 04:59:45;;;;;;;10.50;2.90;;;15.50;61.00;;;;;;5033109;28;20033;-73
2022/04/28 05:02:10;;;;;;;6.93;3.00;;;15.50;60.80;;;;;;5033261;28;20037;-74
2022/04/28 05:04:36;;;;;;;8.55;2.85;;;15.50;60.70;;;;;;5032902;28;20025;-73
2022/04/28 05:07:02;;;;;;;5.82;2.58;;;15.50;60.50;;;;;;5032898;28;20504;-73
2022/04/28 05:09:27;;;;;;;6.25;2.95;;;15.40;60.20;;;;;;5015049;28;20489;-73
2022/04/28 05:11:53;;;;;;;7.85;3.50;;;15.40;60.00;;;;;;5032798;28;20053;-74
2022/04/28 05:14:19;;;;;;;5.80;2.50;;;15.50;60.10;;;;;;5032941;28;20466;-75
2022/04/28 05:16:46;;;;;;;6.10;3.00;;;15.50;59.80;;;;;;5032624;28;20057;-73
2022/04/28 05:19:12;;;;;;;9.55;2.65;;;15.60;59.70;;;;;;5032729;28;20071;-73
2022/04/28 05:21:37;;;;;;;5.22;2.35;;;15.50;59.90;;;;;;5032500;28;20429;-73
2022/04/28 05:24:03;;;;;;;6.13;2.97;;;15.60;59.60;;;;;;5032613;28;20418;-73
2022/04/28 05:26:29;;;;;;;7.18;2.78;;;15.70;59.50;;;;;;5032573;28;20521;-73
2022/04/28 05:28:55;;;;;;;6.45;3.20;;;15.70;59.50;;;;;;5014865;28;20025;-71
2022/04/28 05:31:21;;;;;;;6.00;2.70;;;15.80;58.30;;;;;;5032809;28;20406;-72
2022/04/28 05:33:47;;;;;;;5.35;2.80;;;15.90;57.50;;;;;;5032413;28;20028;-72
2022/04/28 05:36:16;;;;;;;6.25;2.60;;;16.00;57.40;;;;;;5032853;28;20029;-74
2022/04/28 05:38:43;;;;;;;7.30;2.72;;;16.20;57.10;;;;;;5032737;28;20037;-71
2022/04/28 05:41:08;;;;;;;4.85;2.38;;;16.30;56.40;;;;;;5032240;28;20025;-72
2022/04/28 05:46:20;;;;;;;6.50;2.50;;;16.90;56.10;;;;;;5032859;28;20083;-71
2022/04/28 05:48:46;;;;;;;9.60;2.40;;;17.10;55.50;;;;;;5031017;28;20475;-72
2022/04/28 05:51:12;;;;;;;5.40;2.55;;;17.20;55.00;;;;;;5032121;28;20030;-73
2022/04/28 05:53:41;;;;;;;7.90;2.47;;;17.50;55.50;;;;;;5032443;28;20032;-73
2022/04/28 05:56:07;;;;;;;7.72;2.20;;;17.70;54.20;;;;;;5032384;28;20021;-73
2022/04/28 05:58:33;;;;;;;5.50;2.47;;;17.80;53.60;;;;;;5014363;28;20575;-73
2022/04/28 06:01:00;;;;;;;6.35;2.45;;;18.00;54.00;;;;;;5033511;28;20022;-78
2022/04/28 06:03:27;;;;;;;4.22;2.17;;;18.20;51.80;;;;;;5018472;28;20110;-75
2022/04/28 06:05:52;;;;;;;8.68;2.42;;;18.30;52.80;;;;;;5035803;28;20022;-75
2022/04/28 06:08:18;;;;;;;7.20;2.28;;;18.40;51.70;;;;;;5035969;28;20437;-75
2022/04/28 06:10:44;;;;;;;4.78;2.00;;;18.50;51.60;;;;;;5035897;28;20093;-74
2022/04/28 06:13:10;;;;;;;5.97;2.25;;;18.70;51.90;;;;;;5017843;28;20075;-75
2022/04/28 06:15:35;;;;;;;7.63;2.40;;;18.80;51.30;;;;;;5035296;28;20046;-81
2022/04/28 06:18:01;;;;;;;9.18;2.60;;;18.90;50.80;;;;;;5035530;28;20079;-79
2022/04/28 06:20:27;;;;;;;5.25;2.28;;;18.90;50.50;;;;;;5018229;28;20029;-78
2022/04/28 06:22:53;;;;;;;4.80;2.35;;;19.00;50.70;;;;;;5035467;28;20033;-79
2022/04/28 06:25:23;;;;;;;8.07;2.65;;;19.10;50.60;;;;;;5035325;28;20029;-79
2022/04/28 06:27:50;;;;;;;6.10;2.90;;;19.30;50.80;;;;;;5035329;28;20025;-73
2022/04/28 06:30:16;;;;;;;8.57;3.00;;;19.50;51.00;;;;;;5034959;28;20025;-75
2022/04/28 06:32:42;;;;;;;6.40;2.47;;;19.70;50.20;;;;;;5035028;28;20083;-74
2022/04/28 06:35:08;;;;;;;10.90;2.40;;;19.90;49.80;;;;;;5034986;28;20089;-73
2022/04/28 06:37:34;;;;;;;6.18;2.03;;;20.00;49.30;;;;;;5035094;28;20351;-73
2022/04/28 06:40:00;;;;;;;7.15;2.72;;;19.90;49.10;;;;;;5034842;28;20025;-74
2022/04/28 06:42:26;;;;;;;11.98;3.08;;;20.00;49.00;;;;;;5034783;28;20044;-74
2022/04/28 06:44:52;;;;;;;10.48;2.60;;;20.10;48.70;;;;;;5034425;28;20044;-73
2022/04/28 06:47:18;;;;;;;7.90;2.45;;;20.20;49.00;;;;;;5016879;28;20467;-75
2022/04/28 06:49:43;;;;;;;6.03;2.30;;;20.30;49.10;;;;;;5034410;28;20047;-74
2022/04/28 06:52:09;;;;;;;7.03;2.72;;;20.40;48.40;;;;;;5034464;28;20125;-73
2022/04/28 06:54:35;;;;;;;12.90;2.55;;;20.50;48.50;;;;;;5016820;28;20454;-79
2022/04/28 06:57:01;;;;;;;6.70;2.20;;;20.60;48.50;;;;;;5034786;28;20017;-81
2022/04/28 06:59:26;;;;;;;7.80;2.20;;;20.60;48.10;;;;;;5034800;28;20536;-79
2022/04/28 07:01:52;;;;;;;7.60;2.60;;;20.50;47.50;;;;;;5034645;28;20026;-79
2022/04/28 07:04:18;;;;;;;10.27;2.95;;;20.60;48.10;;;;;;5034343;28;20109;-74
2022/04/28 07:06:44;;;;;;;8.32;2.70;;;20.70;47.70;;;;;;5016600;28;20018;-73
2022/04/28 07:09:09;;;;;;;5.97;2.35;;;20.80;47.60;;;;;;5016695;28;20490;-73
2022/04/28 07:11:35;;;;;;;6.88;2.55;;;20.90;46.70;;;;;;5033716;28;20340;-72
2022/04/28 07:14:01;;;;;;;9.48;3.38;;;20.90;47.10;;;;;;5033532;28;20057;-73
2022/04/28 07:16:26;;;;;;;8.60;3.15;;;21.00;47.60;;;;;;5033919;28;20044;-75
2022/04/28 07:18:52;;;;;;;5.90;2.10;;;21.00;47.20;;;;;;5016279;28;20095;-73
2022/04/28 07:21:18;;;;;;;7.32;2.40;;;21.00;46.70;;;;;;5034016;28;20380;-73
2022/04/28 07:23:43;;;;;;;6.00;2.38;;;21.10;46.70;;;;;;5034234;28;20028;-76
2022/04/28 07:26:09;;;;;;;6.78;2.10;;;21.10;46.50;;;;;;5033585;28;20044;-73
2022/04/28 07:28:35;;;;;;;7.80;2.92;;;21.10;46.50;;;;;;5015992;28;20104;-73
2022/04/28 07:31:01;;;;;;;8.40;3.00;;;21.10;46.50;;;;;;5033481;28;20029;-73
2022/04/28 07:33:27;;;;;;;14.93;3.78;;;21.20;46.70;;;;;;5033445;28;20024;-72
2022/04/28 07:35:53;;;;;;;9.68;3.65;;;21.30;46.60;;;;;;5033213;28;20022;-73
2022/04/28 07:38:18;;;;;;;16.33;3.05;;;21.40;46.40;;;;;;5033455;28;20037;-73
2022/04/28 07:40:45;;;;;;;7.50;2.17;;;21.40;46.00;;;;;;5033579;28;20022;-74
2022/04/28 07:43:11;;;;;;;8.27;2.65;;;21.40;45.20;;;;;;5015225;28;20180;-73
2022/04/28 07:45:37;;;;;;;10.27;2.70;;;21.40;45.50;;;;;;5033604;28;20464;-74
2022/04/28 07:48:03;;;;;;;5.20;2.47;;;21.30;45.20;;;;;;5033308;28;20143;-74
2022/04/28 07:50:30;;;;;;;9.48;2.50;;;21.30;45.30;;;;;;5033413;28;20097;-75
2022/04/28 07:52:56;;;;;;;5.35;2.13;;;21.20;45.50;;;;;;5033187;28;20033;-72
2022/04/28 07:55:22;;;;;;;7.15;2.50;;;21.20;45.30;;;;;;5033309;28;20100;-73
2022/04/28 07:57:48;;;;;;;5.72;2.50;;;21.30;45.70;;;;;;5033365;28;20386;-74
2022/04/28 08:00:14;;;;;;;7.70;2.00;;;21.30;45.00;;;;;;5033185;28;20501;-74
2022/04/28 08:02:39;;;;;;;4.68;2.00;;;21.40;45.00;;;;;;5033396;28;20056;-74
2022/04/28 08:05:06;;;;;;;8.13;2.80;;;21.30;45.00;;;;;;5015365;28;20388;-75
2022/04/28 08:07:33;;;;;;;7.78;2.97;;;21.30;45.10;;;;;;5015225;28;20053;-74
2022/04/28 08:09:58;;;;;;;7.50;2.67;;;21.30;45.20;;;;;;5033042;28;20049;-73
2022/04/28 08:12:24;;;;;;;7.90;2.92;;;21.30;45.30;;;;;;5032939;28;20075;-73
2022/04/28 08:14:50;;;;;;;7.72;2.58;;;21.40;45.20;;;;;;5033231;28;20032;-73
2022/04/28 08:17:16;;;;;;;8.68;3.10;;;21.30;45.10;;;;;;5032770;28;20380;-75
2022/04/28 08:19:42;;;;;;;9.25;2.65;;;21.30;45.20;;;;;;5033087;28;20021;-75
2022/04/28 08:22:08;;;;;;;6.22;2.97;;;21.30;45.10;;;;;;5032781;28;20048;-75
2022/04/28 08:24:33;;;;;;;8.10;3.28;;;21.30;44.90;;;;;;5032434;28;20514;-75
2022/04/28 08:26:59;;;;;;;5.95;2.25;;;21.30;45.90;;;;;;5014943;28;20125;-75
2022/04/28 08:29:25;;;;;;;9.52;2.60;;;21.30;45.10;;;;;;5032676;28;20025;-73
2022/04/28 08:31:51;;;;;;;7.53;1.98;;;21.30;45.10;;;;;;5014950;28;20040;-76
2022/04/28 08:34:18;;;;;;;7.20;2.00;;;21.30;44.90;;;;;;5032859;28;20021;-75
2022/04/28 08:36:45;;;;;;;9.63;2.55;;;21.20;45.00;;;;;;5032681;28;20021;-73
2022/04/28 08:39:11;;;;;;;10.30;2.33;;;21.30;45.10;;;;;;5033075;28;20433;-78
2022/04/28 08:41:49;;;;;;;4.70;1.90;;;21.30;44.90;;;;;;5032248;28;20179;-74
2022/04/28 08:44:23;;;;;;;7.43;2.42;;;21.30;44.70;;;;;;5031134;28;20034;-76
2022/04/28 08:46:52;;;;;;;4.53;2.03;;;21.30;44.60;;;;;;5032701;28;20014;-76
2022/04/28 08:49:27;;;;;;;7.63;2.10;;;21.30;44.60;;;;;;5032657;28;20030;-76
2022/04/28 08:51:55;;;;;;;7.72;2.10;;;21.30;44.90;;;;;;5032722;28;20056;-75
2022/04/28 08:54:23;;;;;;;8.52;2.47;;;21.40;44.60;;;;;;5031008;28;20025;-79
2022/04/28 08:56:51;;;;;;;7.25;2.65;;;21.40;45.20;;;;;;5032679;28;20029;-75
2022/04/28 08:59:21;;;;;;;5.35;2.17;;;21.40;45.00;;;;;;5032758;28;20060;-74
2022/04/28 09:01:47;;;;;;;4.93;2.28;;;21.50;44.20;;;;;;5032391;28;20022;-77
2022/04/28 09:04:14;;;;;;;12.05;3.00;;;21.50;45.00;;;;;;5032726;28;20033;-78
2022/04/28 09:06:41;;;;;;;6.78;1.90;;;21.50;45.00;;;;;;5032549;28;20025;-76
2022/04/28 09:09:10;;;;;;;8.90;2.97;;;21.60;44.80;;;;;;5032640;28;20392;-74
2022/04/28 09:11:39;;;;;;;9.65;2.97;;;21.60;44.90;;;;;;5032585;28;20078;-76
2022/04/28 09:14:23;;;;;;;8.15;2.63;;;21.70;45.20;;;;;;5032218;28;20111;-77
2022/04/28 09:16:52;;;;;;;12.98;2.60;;;21.80;44.70;;;;;;5031983;28;20611;-76
2022/04/28 09:19:23;;;;;;;9.32;2.42;;;21.80;44.00;;;;;;5031908;28;20045;-75
2022/04/28 09:21:59;;;;;;;15.52;3.00;;;21.90;44.40;;;;;;5031001;28;20026;-74
2022/04/28 09:24:26;;;;;;;9.80;2.97;;;21.90;45.10;;;;;;5032138;28;20033;-75
2022/04/28 09:26:54;;;;;;;8.50;2.33;;;22.10;45.10;;;;;;5032180;28;20032;-72
2022/04/28 09:29:21;;;;;;;6.35;2.10;;;22.20;45.00;;;;;;5031850;28;20092;-75
2022/04/28 09:31:50;;;;;;;5.47;2.13;;;22.20;44.10;;;;;;5032221;28;20036;-77
2022/04/28 09:34:21;;;;;;;6.78;2.50;;;22.20;44.30;;;;;;5031997;28;20022;-75
2022/04/28 09:36:48;;;;;;;9.35;1.98;;;22.20;44.60;;;;;;5035393;28;20079;-77
2022/04/28 09:42:29;;;;;;;4.63;2.42;;;22.30;44.50;;;;;;5035929;28;20075;-77
2022/04/28 09:44:49;;;;;;;10.38;2.80;;;22.40;44.30;;;;;;5035932;28;20036;-75
2022/04/28 09:47:17;;;;;;;6.38;2.38;;;22.50;43.90;;;;;;5034537;28;20108;-79
2022/04/28 09:49:52;;;;;;;4.15;1.92;;;22.50;43.50;;;;;;5035726;28;20037;-77
2022/04/28 09:52:23;;;;;;;6.03;2.22;;;22.60;43.00;;;;;;5035435;28;20080;-78
2022/04/28 09:54:50;;;;;;;8.15;2.50;;;22.60;43.30;;;;;;5035258;28;20049;-74
2022/04/28 09:57:18;;;;;;;6.53;2.42;;;22.70;43.60;;;;;;5017652;28;20482;-78
2022/04/28 09:59:46;;;;;;;5.45;2.22;;;22.80;43.30;;;;;;5035269;28;20037;-73
2022/04/28 10:02:16;;;;;;;15.75;3.22;;;22.80;43.00;;;;;;5035082;28;20032;-74
2022/04/28 10:04:42;;;;;;;6.10;2.55;;;22.80;43.60;;;;;;5034950;28;20021;-75
2022/04/28 10:07:09;;;;;;;9.73;2.38;;;22.90;43.30;;;;;;5035438;28;20025;-78
2022/04/28 10:09:39;;;;;;;6.25;2.45;;;22.90;43.00;;;;;;5035325;28;20025;-76
2022/04/28 10:12:06;;;;;;;5.22;2.15;;;22.90;43.00;;;;;;5035436;28;20109;-78
2022/04/28 10:14:36;;;;;;;11.82;2.03;;;22.90;42.20;;;;;;5035319;28;20144;-76
2022/04/28 10:17:03;;;;;;;5.18;2.05;;;22.90;42.80;;;;;;5035077;28;20076;-76
2022/04/28 10:19:37;;;;;;;7.65;2.45;;;23.00;42.80;;;;;;5035157;28;20419;-76
2022/04/28 10:22:10;;;;;;;14.85;3.75;;;23.10;42.40;;;;;;5017847;28;20441;-77
2022/04/28 10:33:05;;;;;;;7.95;2.42;;;23.40;42.90;;;;;;5034827;28;20418;-76
2022/04/28 10:35:50;;;;;;;17.42;4.38;;;23.50;42.80;;;;;;5034941;28;20033;-76
2022/04/28 10:38:19;;;;;;;3.78;2.05;;;23.50;41.60;;;;;;5033619;28;20403;-75
2022/04/28 10:41:00;;;;;;;15.15;2.67;;;23.50;42.40;;;;;;5035177;28;20026;-77
2022/04/28 10:43:34;;;;;;;8.98;2.60;;;23.50;40.90;;;;;;5033455;28;20037;-77
2022/04/28 10:46:08;;;;;;;8.75;2.97;;;23.60;42.20;;;;;;5033142;28;20029;-75
2022/04/28 10:48:38;;;;;;;10.15;2.85;;;23.60;42.30;;;;;;5034910;28;20108;-77
2022/04/28 10:51:13;;;;;;;7.63;2.42;;;23.70;42.10;;;;;;5035049;28;20029;-77
2022/04/28 10:54:06;;;;;;;19.08;3.85;;;23.70;41.50;;;;;;5034433;28;20536;-76
2022/04/28 10:56:56;;;;;;;340.67;32.60;;;23.80;42.30;;;;;;5004507;28;20461;-74
2022/04/28 10:59:34;;;;;;;19.88;4.60;;;23.90;42.20;;;;;;5034542;28;20064;-73
2022/04/28 11:02:15;;;;;;;81.90;8.10;;;24.00;42.30;;;;;;5034346;28;20347;-74
2022/04/28 11:05:01;;;;;;;819.78;79.35;;;24.10;42.20;;;;;;5034433;28;20051;-74
2022/04/28 11:07:29;;;;;;;12.27;2.88;;;24.20;41.90;;;;;;5034624;28;20027;-75
2022/04/28 11:10:04;;;;;;;22.08;3.47;;;24.20;41.60;;;;;;5034588;28;20030;-76
2022/04/28 11:12:38;;;;;;;10.13;2.40;;;24.30;41.40;;;;;;5032909;28;20022;-74
2022/04/28 11:15:10;;;;;;;7.80;2.20;;;24.40;40.90;;;;;;5034182;28;20033;-72
2022/04/28 11:17:38;;;;;;;6.32;2.20;;;24.40;40.10;;;;;;5032644;28;20025;-73
2022/04/28 11:20:07;;;;;;;5.13;2.20;;;24.40;39.90;;;;;;5034033;28;20038;-76
2022/04/28 11:22:34;;;;;;;6.60;2.20;;;24.50;39.90;;;;;;5033442;28;20396;-76
2022/04/28 11:25:08;;;;;;;7.35;2.50;;;24.50;39.60;;;;;;5034078;28;20033;-75
2022/04/28 11:27:34;;;;;;;8.18;2.55;;;24.60;39.50;;;;;;5034054;28;20025;-73
2022/04/28 11:30:03;;;;;;;10.38;3.05;;;24.70;39.30;;;;;;5034097;28;20112;-76
2022/04/28 11:32:28;;;;;;;4.65;1.80;;;24.80;39.10;;;;;;5034079;28;20033;-74
2022/04/28 11:34:57;;;;;;;13.80;3.47;;;24.80;37.70;;;;;;5016070;28;20155;-78
2022/04/28 11:37:25;;;;;;;9.13;2.67;;;24.70;38.20;;;;;;5034224;28;20037;-75
2022/04/28 11:39:55;;;;;;;4.68;2.03;;;24.80;38.20;;;;;;5033874;28;20021;-77
2022/04/28 11:42:24;;;;;;;9.27;2.65;;;24.80;37.90;;;;;;5000046;28;20387;-77
2022/04/28 11:44:56;;;;;;;37.70;4.00;;;24.90;37.10;;;;;;5033947;28;20081;-77
2022/04/28 11:47:23;;;;;;;7.03;1.98;;;24.90;37.00;;;;;;5036714;28;20057;-78
2022/04/28 11:49:56;;;;;;;6.45;2.17;;;24.90;36.20;;;;;;5032516;28;20026;-76
2022/04/28 11:52:27;;;;;;;9.05;2.55;;;25.00;36.50;;;;;;5033843;28;20052;-78
2022/04/28 11:55:08;;;;;;;4.53;2.05;;;25.10;36.10;;;;;;5033527;28;20033;-74
2022/04/28 11:57:37;;;;;;;6.70;2.33;;;25.20;36.10;;;;;;5033812;28;20057;-73
2022/04/28 12:00:06;;;;;;;3.80;1.85;;;25.20;36.00;;;;;;5033409;28;20037;-82
2022/04/28 12:02:35;;;;;;;5.55;1.98;;;25.30;35.90;;;;;;5033727;28;20036;-76
2022/04/28 12:05:06;;;;;;;6.70;1.77;;;25.30;35.60;;;;;;5033520;28;20028;-74
2022/04/28 12:07:35;;;;;;;4.47;1.80;;;25.40;35.80;;;;;;5033665;28;20033;-75
2022/04/28 12:15:34;;;;;;;5.32;2.28;;;25.60;35.40;;;;;;5033218;28;20048;-74
2022/04/28 12:20:56;;;;;;;6.20;2.72;;;25.80;33.50;;;;;;5033532;28;20079;-70
2022/04/28 12:23:38;;;;;;;6.28;2.33;;;25.90;34.00;;;;;;5033830;28;20030;-75
2022/04/28 12:26:09;;;;;;;6.93;2.38;;;26.10;34.00;;;;;;5033310;28;20048;-74
2022/04/28 12:28:41;;;;;;;5.82;1.77;;;26.10;33.90;;;;;;5033193;28;20032;-73
2022/04/28 12:31:13;;;;;;;4.15;1.80;;;26.20;33.80;;;;;;5031872;28;20033;-72
2022/04/28 12:33:45;;;;;;;3.15;1.77;;;26.10;32.60;;;;;;5031234;28;20410;-74
2022/04/28 12:36:14;;;;;;;9.03;2.13;;;26.10;32.20;;;;;;5033332;28;20525;-73
2022/04/28 12:38:52;;;;;;;4.80;1.95;;;26.10;31.70;;;;;;5014757;28;20037;-74
2022/04/28 12:41:27;;;;;;;6.72;2.22;;;26.00;32.40;;;;;;5028747;28;20032;-74
2022/04/28 12:44:00;;;;;;;8.38;2.13;;;26.10;32.70;;;;;;5033373;28;20363;-74
2022/04/28 12:46:34;;;;;;;8.25;2.30;;;26.20;34.10;;;;;;5032725;28;20021;-74
2022/04/28 12:49:10;;;;;;;8.77;2.35;;;26.20;35.20;;;;;;5031228;28;20120;-73
2022/04/28 12:51:55;;;;;;;7.32;2.10;;;26.30;36.70;;;;;;5031252;28;20421;-74
2022/04/28 12:54:25;;;;;;;4.38;2.13;;;26.30;37.10;;;;;;5032616;28;20113;-73
2022/04/28 12:57:10;;;;;;;11.73;2.70;;;26.30;38.30;;;;;;5014913;28;20064;-75
2022/04/28 12:59:38;;;;;;;8.88;2.17;;;26.40;38.20;;;;;;5032883;28;20033;-73
2022/04/28 13:02:05;;;;;;;7.45;2.35;;;26.40;38.50;;;;;;5032855;28;20101;-75
2022/04/28 13:04:35;;;;;;;16.48;3.17;;;26.40;38.60;;;;;;5032643;28;20475;-74
2022/04/28 13:07:01;;;;;;;14.93;2.33;;;26.30;39.10;;;;;;5032676;28;20067;-74
2022/04/28 13:09:29;;;;;;;5.45;1.85;;;26.40;39.20;;;;;;5033695;28;20025;-74
2022/04/28 13:11:56;;;;;;;6.13;2.22;;;26.40;38.80;;;;;;5019488;28;20021;-74
2022/04/28 13:14:22;;;;;;;7.68;1.95;;;26.40;38.90;;;;;;5035412;28;20076;-74
2022/04/28 13:16:50;;;;;;;12.80;2.33;;;26.30;39.00;;;;;;5036278;28;20049;-74
2022/04/28 13:19:18;;;;;;;6.90;2.00;;;26.20;38.90;;;;;;5036570;28;20383;-74
2022/04/28 13:21:45;;;;;;;7.82;1.80;;;26.10;39.10;;;;;;5036353;28;20018;-74
2022/04/28 13:24:12;;;;;;;7.10;2.10;;;26.10;39.70;;;;;;5018303;28;20040;-76
2022/04/28 13:26:38;;;;;;;7.80;1.92;;;26.10;39.90;;;;;;5036158;28;20109;-73
2022/04/28 13:29:05;;;;;;;6.43;2.10;;;26.10;40.00;;;;;;5036749;28;20091;-74